Yangtze Xing Zhong — VRJR4 — position and weather

sailwx.info

Track history (hours):
 
Tides and Currents Weather Stations Pressure Air Temp Water Temp Dewpoint Dewpoint Depression Visibility Wind Speed Wind Dir Waves Ship Positions

Yangtze Xing Zhong

Last reported at 2017-Nov-25 09:28 UTC. Time now 2017-Nov-25 09:54 UTC.
Position S 01°34' W 048°47'.

Length 229 m; draft 7.2 m.

Type: Cargo ship. MMSI: 477167400.

Date/timePositionNaut miles runAvg speedWind from/ knotsBaromVisibWave heightAir tempDewpointWater temp
2017-Nov-25 09:28S 01°34' W 048°47'0 0.0
2017-Nov-25 08:58S 01°34' W 048°47'0 0.0
2017-Nov-25 08:28S 01°34' W 048°47'0 0.0
2017-Nov-25 07:58S 01°34' W 048°47'0 0.0
2017-Nov-25 07:22S 01°34' W 048°47'0 0.0
2017-Nov-25 06:52S 01°34' W 048°47'0 0.0
2017-Nov-25 06:28S 01°34' W 048°47'0 0.0
2017-Nov-25 05:46S 01°34' W 048°47'0 0.0
2017-Nov-25 05:22S 01°34' W 048°47'0 0.0
2017-Nov-25 04:58S 01°34' W 048°47'0 0.0
2017-Nov-25 04:28S 01°34' W 048°47'0 0.0
2017-Nov-25 03:52S 01°34' W 048°47'0 0.0
2017-Nov-25 03:28S 01°34' W 048°47'0 0.0
2017-Nov-25 02:58S 01°34' W 048°47'0 0.0
2017-Nov-25 02:28S 01°34' W 048°47'0 0.0
2017-Nov-25 01:58S 01°34' W 048°47'0 0.0
2017-Nov-25 01:16S 01°34' W 048°47'0 0.0
2017-Nov-25 00:58S 01°34' W 048°47'0 0.0
2017-Nov-25 00:28S 01°34' W 048°47'0 0.0
2017-Nov-24 23:58S 01°34' W 048°47'0 0.0
2017-Nov-24 23:28S 01°34' W 048°47'0 0.0
2017-Nov-24 22:58S 01°34' W 048°47'0 0.0
2017-Nov-24 22:28S 01°34' W 048°47'0 0.0
2017-Nov-24 21:58S 01°34' W 048°47'0 0.0
2017-Nov-24 21:28S 01°34' W 048°47'0 0.0
2017-Nov-24 20:58S 01°34' W 048°47'0 0.0
2017-Nov-24 20:28S 01°34' W 048°47'0 0.0
2017-Nov-24 19:58S 01°34' W 048°47'0 0.0
2017-Nov-24 19:28S 01°34' W 048°47'0 0.0
2017-Nov-24 18:58S 01°34' W 048°47'0 0.0
2017-Nov-24 18:28S 01°34' W 048°47'0 0.0
2017-Nov-24 17:52S 01°34' W 048°47'0 0.0
2017-Nov-24 17:28S 01°34' W 048°47'0 0.0
2017-Nov-24 16:58S 01°34' W 048°47'0 0.0
2017-Nov-24 16:10S 01°34' W 048°47'0 0.0
2017-Nov-24 15:58S 01°34' W 048°47'0 0.7
2017-Nov-24 15:31S 01°34' W 048°47'3 6.3
2017-Nov-24 15:00S 01°31' W 048°46'613.0
2017-Nov-24 14:31S 01°26' W 048°43'713.5
2017-Nov-24 14:01S 01°20' W 048°40'612.8
2017-Nov-24 13:31S 01°14' W 048°36'612.4
2017-Nov-24 13:01S 01°09' W 048°32'3 6.2
2017-Nov-24 12:27S 01°06' W 048°30'0 0.2
2017-Nov-24 11:57S 01°06' W 048°30'0 0.0
2017-Nov-24 11:27S 01°06' W 048°30'0 0.0
2017-Nov-24 10:57S 01°06' W 048°30'0 0.0
2017-Nov-24 10:27S 01°06' W 048°30'0 0.0
2017-Nov-24 09:57S 01°06' W 048°30'0 0.0
2017-Nov-24 09:30S 01°06' W 048°30'0 0.1
2017-Nov-24 08:57S 01°06' W 048°30'0 0.1
2017-Nov-24 08:30S 01°07' W 048°30'0 0.2
2017-Nov-24 07:58S 01°07' W 048°30'0 0.1
2017-Nov-24 07:27S 01°07' W 048°30'0 0.1
2017-Nov-24 04:24S 01°06' W 048°30'1 3.5
2017-Nov-24 04:01S 01°05' W 048°30'4 8.0
2017-Nov-24 03:31S 01°02' W 048°28'711.5
2017-Nov-24 02:56S 00°55' W 048°27'3213.5
2017-Nov-24 00:33S 00°26' W 048°13'114.3
2017-Nov-24 00:29S 00°26' W 048°13'714.1
2017-Nov-24 00:00S 00°22' W 048°07'713.5
2017-Nov-23 23:30S 00°19' W 048°01'713.4
2017-Nov-23 23:00S 00°15' W 047°56'713.2
2017-Nov-23 22:31S 00°10' W 047°51'713.4
2017-Nov-23 22:01S 00°06' W 047°45'713.5
2017-Nov-23 21:31S 00°04' W 047°39'713.5
2017-Nov-23 21:01S 00°01' W 047°33'713.1
2017-Nov-23 20:30N 00°03' W 047°28'  
Track history (hours):
 
Tides and Currents Weather Stations Pressure Air Temp Water Temp Dewpoint Dewpoint Depression Visibility Wind Speed Wind Dir Waves Ship Positions

Yangtze Xing Zhong

Last reported at 2017-Nov-25 09:28 UTC. Time now 2017-Nov-25 09:54 UTC.
Position S 01°34' W 048°47'.

Length 229 m; draft 7.2 m.

Type: Cargo ship. MMSI: 477167400.

Date/timePositionNaut miles runAvg speedWind from/ knotsBaromVisibWave heightAir tempDewpointWater temp
2017-Nov-25 09:28S 01°34' W 048°47'0 0.0
2017-Nov-25 08:58S 01°34' W 048°47'0 0.0
2017-Nov-25 08:28S 01°34' W 048°47'0 0.0
2017-Nov-25 07:58S 01°34' W 048°47'0 0.0
2017-Nov-25 07:22S 01°34' W 048°47'0 0.0
2017-Nov-25 06:52S 01°34' W 048°47'0 0.0
2017-Nov-25 06:28S 01°34' W 048°47'0 0.0
2017-Nov-25 05:46S 01°34' W 048°47'0 0.0
2017-Nov-25 05:22S 01°34' W 048°47'0 0.0
2017-Nov-25 04:58S 01°34' W 048°47'0 0.0
2017-Nov-25 04:28S 01°34' W 048°47'0 0.0
2017-Nov-25 03:52S 01°34' W 048°47'0 0.0
2017-Nov-25 03:28S 01°34' W 048°47'0 0.0
2017-Nov-25 02:58S 01°34' W 048°47'0 0.0
2017-Nov-25 02:28S 01°34' W 048°47'0 0.0
2017-Nov-25 01:58S 01°34' W 048°47'0 0.0
2017-Nov-25 01:16S 01°34' W 048°47'0 0.0
2017-Nov-25 00:58S 01°34' W 048°47'0 0.0
2017-Nov-25 00:28S 01°34' W 048°47'0 0.0
2017-Nov-24 23:58S 01°34' W 048°47'0 0.0
2017-Nov-24 23:28S 01°34' W 048°47'0 0.0
2017-Nov-24 22:58S 01°34' W 048°47'0 0.0
2017-Nov-24 22:28S 01°34' W 048°47'0 0.0
2017-Nov-24 21:58S 01°34' W 048°47'0 0.0
2017-Nov-24 21:28S 01°34' W 048°47'0 0.0
2017-Nov-24 20:58S 01°34' W 048°47'0 0.0
2017-Nov-24 20:28S 01°34' W 048°47'0 0.0
2017-Nov-24 19:58S 01°34' W 048°47'0 0.0
2017-Nov-24 19:28S 01°34' W 048°47'0 0.0
2017-Nov-24 18:58S 01°34' W 048°47'0 0.0
2017-Nov-24 18:28S 01°34' W 048°47'0 0.0
2017-Nov-24 17:52S 01°34' W 048°47'0 0.0
2017-Nov-24 17:28S 01°34' W 048°47'0 0.0
2017-Nov-24 16:58S 01°34' W 048°47'0 0.0
2017-Nov-24 16:10S 01°34' W 048°47'0 0.0
2017-Nov-24 15:58S 01°34' W 048°47'0 0.7
2017-Nov-24 15:31S 01°34' W 048°47'3 6.3
2017-Nov-24 15:00S 01°31' W 048°46'613.0
2017-Nov-24 14:31S 01°26' W 048°43'713.5
2017-Nov-24 14:01S 01°20' W 048°40'612.8
2017-Nov-24 13:31S 01°14' W 048°36'612.4
2017-Nov-24 13:01S 01°09' W 048°32'3 6.2
2017-Nov-24 12:27S 01°06' W 048°30'0 0.2
2017-Nov-24 11:57S 01°06' W 048°30'0 0.0
2017-Nov-24 11:27S 01°06' W 048°30'0 0.0
2017-Nov-24 10:57S 01°06' W 048°30'0 0.0
2017-Nov-24 10:27S 01°06' W 048°30'0 0.0
2017-Nov-24 09:57S 01°06' W 048°30'0 0.0
2017-Nov-24 09:30S 01°06' W 048°30'0 0.1
2017-Nov-24 08:57S 01°06' W 048°30'0 0.1
2017-Nov-24 08:30S 01°07' W 048°30'0 0.2
2017-Nov-24 07:58S 01°07' W 048°30'0 0.1
2017-Nov-24 07:27S 01°07' W 048°30'0 0.1
2017-Nov-24 04:24S 01°06' W 048°30'1 3.5
2017-Nov-24 04:01S 01°05' W 048°30'4 8.0
2017-Nov-24 03:31S 01°02' W 048°28'711.5
2017-Nov-24 02:56S 00°55' W 048°27'3213.5
2017-Nov-24 00:33S 00°26' W 048°13'114.3
2017-Nov-24 00:29S 00°26' W 048°13'714.1
2017-Nov-24 00:00S 00°22' W 048°07'713.5
2017-Nov-23 23:30S 00°19' W 048°01'713.4
2017-Nov-23 23:00S 00°15' W 047°56'713.2
2017-Nov-23 22:31S 00°10' W 047°51'713.4
2017-Nov-23 22:01S 00°06' W 047°45'713.5
2017-Nov-23 21:31S 00°04' W 047°39'713.5
2017-Nov-23 21:01S 00°01' W 047°33'713.1
2017-Nov-23 20:30N 00°03' W 047°28'  

Dump ship's entire track history